Terminal Aerodrome Forecast
Issued by NWS Melbourne, FL

Home | Current Version | Previous Version | Text Only | Print | Product List | Glossary On
Versions: 1 2 3 4 5 6 7 8 9 10 11 12 13 14 15
837
FTUS42 KMLB 091739
TAFMLB
TAF
KMLB 091739Z 0918/1018 27015G22KT P6SM BKN060
     FM100000 26011KT P6SM BKN050
     FM100600 29012G18KT P6SM SCT050
     FM101400 30015G22KT P6SM SKC=

USA.gov is the U.S. government's official web portal to all federal, state and local government web resources and services.